createdAt,value
2022-12-14T00:01:34.859Z,92890.56
2022-12-14T00:04:01.548Z,92894.22
2022-12-14T00:06:31.015Z,92874.38
2022-12-14T00:08:59.969Z,92884.56
2022-12-14T00:11:27.893Z,92874.41
2022-12-14T00:13:59.694Z,92868.94
2022-12-14T00:16:30.971Z,92875.69
2022-12-14T00:18:59.879Z,92871.78
2022-12-14T00:21:27.466Z,92886.94
2022-12-14T00:23:54.939Z,92886.41
2022-12-14T00:26:24.866Z,92889.53
2022-12-14T00:28:53.432Z,92886.16
2022-12-14T00:31:21.461Z,92889.56
2022-12-14T00:33:48.733Z,92879.13
2022-12-14T00:36:15.424Z,92858.78
2022-12-14T00:38:42.817Z,92859.81
2022-12-14T00:41:10.769Z,92862.19
2022-12-14T00:43:38.176Z,92855.38
2022-12-14T00:46:04.964Z,92844.69
2022-12-14T00:48:32.349Z,92844.16
2022-12-14T00:50:59.436Z,92851.75
2022-12-14T00:53:26.484Z,92839.19
2022-12-14T00:55:53.294Z,92844.69
2022-12-14T00:58:23.052Z,92844.69
2022-12-14T01:01:01.908Z,92841.03
2022-12-14T01:03:29.109Z,92822.78
2022-12-14T01:05:56.454Z,92832.41
2022-12-14T01:08:23.683Z,92827.47
2022-12-14T01:10:50.990Z,92827.47
2022-12-14T01:13:18.081Z,92836.84
2022-12-14T01:15:44.882Z,92834.50
2022-12-14T01:18:11.674Z,92835.81
2022-12-14T01:20:38.296Z,92842.06
2022-12-14T01:23:04.958Z,92851.22
2022-12-14T01:25:31.705Z,92846.25
2022-12-14T01:27:58.385Z,92850.44
2022-12-14T01:30:25.090Z,92829.31
2022-12-14T01:32:51.766Z,92830.34
2022-12-14T01:35:18.460Z,92834.25
2022-12-14T01:37:45.172Z,92815.75
2022-12-14T01:40:15.668Z,92821.75
2022-12-14T01:42:42.330Z,92841.31
2022-12-14T01:45:22.288Z,92844.41
2022-12-14T01:47:55.974Z,92846.25
2022-12-14T01:50:26.326Z,92829.81
2022-12-14T01:52:57.790Z,92826.44
2022-12-14T01:55:34.373Z,92812.88
2022-12-14T01:58:15.387Z,92810.78
2022-12-14T02:00:43.668Z,92814.44
2022-12-14T02:03:15.026Z,92804.53
2022-12-14T02:05:50.662Z,92796.19
2022-12-14T02:08:19.406Z,92794.63
2022-12-14T02:10:47.370Z,92805.06
2022-12-14T02:13:25.905Z,92809.75
2022-12-14T02:15:53.297Z,92816.53
2022-12-14T02:18:26.284Z,92811.56
2022-12-14T02:21:14.418Z,92809.75
2022-12-14T02:23:53.507Z,92790.72
2022-12-14T02:26:52.192Z,92772.44
2022-12-14T02:29:46.050Z,92778.72
2022-12-14T02:32:33.958Z,92779.22
2022-12-14T02:35:37.708Z,92782.09
2022-12-14T02:38:25.800Z,92773.50
2022-12-14T02:41:27.570Z,92768.78
2022-12-14T02:44:06.713Z,92768.00
2022-12-14T02:46:50.657Z,92763.31
2022-12-14T02:49:42.399Z,92759.16
2022-12-14T02:52:31.656Z,92756.28
2022-12-14T02:55:05.496Z,92752.88
2022-12-14T02:57:50.214Z,92759.38
2022-12-14T03:00:17.032Z,92756.00
2022-12-14T03:02:45.604Z,92763.81
2022-12-14T03:05:12.647Z,92765.13
2022-12-14T03:07:48.624Z,92766.44
2022-12-14T03:10:34.222Z,92756.78
2022-12-14T03:13:34.736Z,92763.81
2022-12-14T03:16:08.055Z,92753.94
2022-12-14T03:18:42.887Z,92757.81
2022-12-14T03:21:13.641Z,92761.72
2022-12-14T03:23:43.714Z,92756.50
2022-12-14T03:26:26.471Z,92760.16
2022-12-14T03:28:56.659Z,92749.47
2022-12-14T03:31:40.003Z,92753.38
2022-12-14T03:34:13.154Z,92739.81
2022-12-14T03:36:59.294Z,92750.78
2022-12-14T03:39:32.095Z,92741.38
2022-12-14T03:42:26.531Z,92746.34
2022-12-14T03:45:30.481Z,92748.44
2022-12-14T03:48:35.141Z,92744.00
2022-12-14T03:51:18.437Z,92748.16
2022-12-14T03:54:21.237Z,92732.78
2022-12-14T03:56:53.214Z,92723.06
2022-12-14T03:59:48.673Z,92724.38
2022-12-14T04:02:26.276Z,92718.91
2022-12-14T04:05:06.093Z,92714.47
2022-12-14T04:07:46.521Z,92698.59
2022-12-14T04:10:36.539Z,92700.16
2022-12-14T04:13:27.321Z,92702.25
2022-12-14T04:16:14.639Z,92696.25
2022-12-14T04:19:00.626Z,92692.81
2022-12-14T04:21:43.058Z,92693.84
2022-12-14T04:24:41.461Z,92689.41
2022-12-14T04:27:20.531Z,92683.41
2022-12-14T04:29:56.775Z,92685.03
2022-12-14T04:32:41.706Z,92682.13
2022-12-14T04:35:39.790Z,92695.41
2022-12-14T04:38:22.181Z,92681.06
2022-12-14T04:41:11.591Z,92684.72
2022-12-14T04:43:43.875Z,92678.47
2022-12-14T04:46:41.104Z,92667.75
2022-12-14T04:49:12.630Z,92667.75
2022-12-14T04:52:05.439Z,92657.31
2022-12-14T04:54:40.290Z,92647.41
2022-12-14T04:57:12.249Z,92655.50
2022-12-14T04:59:43.858Z,92637.75
2022-12-14T05:02:40.889Z,92654.97
2022-12-14T05:05:25.646Z,92646.88
2022-12-14T05:08:14.213Z,92647.41
2022-12-14T05:10:44.920Z,92647.16
2022-12-14T05:13:24.723Z,92647.41
2022-12-14T05:15:55.399Z,92646.88
2022-12-14T05:18:23.225Z,92642.69
2022-12-14T05:20:50.669Z,92645.28
2022-12-14T05:23:17.609Z,92633.81
2022-12-14T05:25:44.406Z,92631.19
2022-12-14T05:28:15.916Z,92626.25
2022-12-14T05:30:42.732Z,92633.28
2022-12-14T05:33:19.894Z,92631.72
2022-12-14T05:35:46.877Z,92619.22
2022-12-14T05:38:13.550Z,92618.69
2022-12-14T05:40:40.275Z,92622.34
2022-12-14T05:43:08.864Z,92620.00
2022-12-14T05:45:35.506Z,92616.84
2022-12-14T05:48:02.400Z,92624.94
2022-12-14T05:50:29.034Z,92623.38
2022-12-14T05:52:55.985Z,92615.53
2022-12-14T05:55:22.742Z,92608.25
2022-12-14T05:57:49.392Z,92607.47
2022-12-14T06:00:16.186Z,92609.81
2022-12-14T06:02:43.019Z,92601.44
2022-12-14T06:05:09.754Z,92599.59
2022-12-14T06:07:36.392Z,92596.22
2022-12-14T06:10:03.260Z,92581.34
2022-12-14T06:12:30.561Z,92576.38
2022-12-14T06:14:57.189Z,92582.41
2022-12-14T06:17:23.872Z,92585.00
2022-12-14T06:19:50.669Z,92573.47
2022-12-14T06:22:17.968Z,92574.03
2022-12-14T06:24:44.630Z,92571.38
2022-12-14T06:27:11.269Z,92574.75
2022-12-14T06:29:37.963Z,92562.22
2022-12-14T06:32:04.843Z,92561.97
2022-12-14T06:34:35.388Z,92566.16
2022-12-14T06:37:06.296Z,92560.13
2022-12-14T06:39:33.199Z,92557.78
2022-12-14T06:41:59.853Z,92546.81
2022-12-14T06:44:26.622Z,92562.19
2022-12-14T06:46:53.357Z,92559.31
2022-12-14T06:49:20.118Z,92562.19
2022-12-14T06:51:46.799Z,92553.84
2022-12-14T06:54:15.150Z,92571.81
2022-12-14T06:56:43.596Z,92558.00
2022-12-14T06:59:10.710Z,92546.78
2022-12-14T07:01:38.547Z,92547.56
2022-12-14T07:04:06.375Z,92544.66
2022-12-14T07:06:36.727Z,92543.91
2022-12-14T07:09:04.969Z,92540.00
2022-12-14T07:11:32.050Z,92534.78
2022-12-14T07:14:05.986Z,92533.75
2022-12-14T07:16:34.902Z,92537.09
2022-12-14T07:19:01.656Z,92536.31
2022-12-14T07:21:28.325Z,92549.03
2022-12-14T07:23:55.183Z,92530.31
2022-12-14T07:26:27.618Z,92537.88
2022-12-14T07:28:54.704Z,92526.13
2022-12-14T07:31:25.938Z,92509.16
2022-12-14T07:33:54.902Z,92513.59
2022-12-14T07:36:22.961Z,92514.03
2022-12-14T07:38:50.852Z,92511.69
2022-12-14T07:41:24.083Z,92506.75
2022-12-14T07:43:51.917Z,92498.38
2022-12-14T07:46:21.496Z,92504.38
2022-12-14T07:48:50.668Z,92504.88
2022-12-14T07:51:19.652Z,92518.53
2022-12-14T07:53:46.394Z,92512.03
2022-12-14T07:56:19.527Z,92503.13
2022-12-14T07:58:46.479Z,92509.41
2022-12-14T08:01:19.366Z,92512.19
2022-12-14T08:03:57.854Z,92507.25
2022-12-14T08:06:26.734Z,92506.47
2022-12-14T08:08:54.299Z,92498.09
2022-12-14T08:11:22.359Z,92488.94
2022-12-14T08:14:07.026Z,92485.59
2022-12-14T08:16:33.936Z,92493.41
2022-12-14T08:19:01.333Z,92490.00
2022-12-14T08:21:28.319Z,92488.63
2022-12-14T08:23:57.186Z,92486.03
2022-12-14T08:26:30.141Z,92484.19
2022-12-14T08:29:00.123Z,92480.06
2022-12-14T08:31:28.360Z,92479.75
2022-12-14T08:33:55.525Z,92475.31
2022-12-14T08:36:28.029Z,92468.44
2022-12-14T08:38:56.597Z,92460.09
2022-12-14T08:41:24.966Z,92476.50
2022-12-14T08:43:56.701Z,92476.97
2022-12-14T08:46:24.766Z,92469.63
2022-12-14T08:48:53.352Z,92487.88
2022-12-14T08:51:20.906Z,92486.59
2022-12-14T08:53:48.127Z,92493.38
2022-12-14T08:56:18.672Z,92495.44
2022-12-14T08:58:45.509Z,92489.72
2022-12-14T09:01:16.016Z,92481.53
2022-12-14T09:03:44.720Z,92479.69
2022-12-14T09:06:15.372Z,92478.13
2022-12-14T09:08:42.397Z,92480.97
2022-12-14T09:11:12.918Z,92482.53
2022-12-14T09:13:40.236Z,92469.69
2022-12-14T09:16:10.927Z,92468.84
2022-12-14T09:18:37.826Z,92466.72
2022-12-14T09:21:04.714Z,92464.31
2022-12-14T09:23:33.500Z,92463.25
2022-12-14T09:26:07.136Z,92461.41
2022-12-14T09:28:36.690Z,92462.66
2022-12-14T09:31:06.900Z,92461.03
2022-12-14T09:33:34.403Z,92461.81
2022-12-14T09:36:08.380Z,92450.81
2022-12-14T09:38:36.655Z,92452.66
2022-12-14T09:41:07.924Z,92454.22
2022-12-14T09:43:43.575Z,92443.16
2022-12-14T09:46:24.390Z,92434.75
2022-12-14T09:48:52.696Z,92441.50
2022-12-14T09:51:22.670Z,92437.78
2022-12-14T09:54:02.165Z,92428.38
2022-12-14T09:56:29.419Z,92427.22
2022-12-14T09:58:58.551Z,92429.50
2022-12-14T10:01:55.541Z,92425.19
2022-12-14T10:04:47.843Z,92421.13
2022-12-14T10:07:34.808Z,92428.59
2022-12-14T10:10:13.838Z,92427.81
2022-12-14T10:12:40.450Z,92423.28
2022-12-14T10:15:44.777Z,92427.59
2022-12-14T10:21:33.275Z,92419.69
2022-12-14T10:24:04.725Z,92413.31
2022-12-14T10:26:53.779Z,92404.84
2022-12-14T10:30:04.677Z,92408.66
2022-12-14T10:32:39.565Z,92399.38
2022-12-14T10:35:20.614Z,92391.63
2022-12-14T10:37:53.650Z,92393.06
2022-12-14T10:40:33.668Z,92393.75
2022-12-14T10:43:29.958Z,92379.41
2022-12-14T10:46:22.395Z,92378.78
2022-12-14T10:49:04.258Z,92375.00
2022-12-14T10:51:37.726Z,92375.78
2022-12-14T10:54:30.537Z,92370.66
2022-12-14T10:56:57.214Z,92374.28
2022-12-14T10:59:39.783Z,92381.78
2022-12-14T11:02:17.006Z,92382.84
2022-12-14T11:05:00.512Z,92379.34
2022-12-14T11:07:39.396Z,92382.06
2022-12-14T11:10:22.872Z,92372.66
2022-12-14T11:12:55.536Z,92376.06
2022-12-14T11:15:38.119Z,92369.75
2022-12-14T11:18:06.918Z,92364.94
2022-12-14T11:20:34.406Z,92369.47
2022-12-14T11:23:17.680Z,92361.75
2022-12-14T11:25:50.806Z,92352.59
2022-12-14T11:28:39.807Z,92359.78
2022-12-14T11:31:27.902Z,92345.03
2022-12-14T11:33:57.005Z,92330.50
2022-12-14T11:36:38.562Z,92340.84
2022-12-14T11:39:14.270Z,92340.28
2022-12-14T11:41:47.323Z,92342.41
2022-12-14T11:44:17.078Z,92339.78
2022-12-14T11:46:58.029Z,92336.97
2022-12-14T11:49:37.733Z,92339.03
2022-12-14T11:52:04.350Z,92342.91
2022-12-14T11:54:39.130Z,92340.09
2022-12-14T11:57:10.513Z,92344.75
2022-12-14T11:59:42.740Z,92343.41
2022-12-14T12:02:16.992Z,92345.13
2022-12-14T12:04:47.741Z,92346.97
2022-12-14T12:07:36.339Z,92336.28
2022-12-14T12:10:14.735Z,92340.66
2022-12-14T12:13:01.024Z,92340.63
2022-12-14T12:15:41.059Z,92339.47
2022-12-14T12:18:35.713Z,92350.25
2022-12-14T12:21:02.272Z,92352.28
2022-12-14T12:23:36.197Z,92349.56
2022-12-14T12:26:13.001Z,92348.94
2022-12-14T12:28:43.788Z,92347.28
2022-12-14T12:31:19.401Z,92341.84
2022-12-14T12:34:17.179Z,92342.84
2022-12-14T12:37:17.092Z,92340.22
2022-12-14T12:39:35.636Z,92338.75
2022-12-14T12:42:20.686Z,92343.22
2022-12-14T12:45:21.623Z,92341.88
2022-12-14T12:47:54.797Z,92336.13
2022-12-14T12:50:26.236Z,92332.16
2022-12-14T12:52:57.809Z,92339.47
2022-12-14T12:55:30.867Z,92336.75
2022-12-14T12:58:01.695Z,92330.91
2022-12-14T13:00:30.575Z,92320.69
2022-12-14T13:03:25.106Z,92323.66
2022-12-14T13:05:55.505Z,92325.97
2022-12-14T13:08:37.262Z,92323.25
2022-12-14T13:11:26.254Z,92333.44
2022-12-14T13:14:02.789Z,92334.81
2022-12-14T13:16:35.036Z,92340.19
2022-12-14T13:19:51.716Z,92344.97
2022-12-14T13:22:31.952Z,92333.03
2022-12-14T13:25:06.584Z,92328.75
2022-12-14T13:28:05.799Z,92338.97
2022-12-14T13:30:43.331Z,92346.06
2022-12-14T13:33:51.189Z,92335.25
2022-12-14T13:36:36.962Z,92333.25
2022-12-14T13:39:26.832Z,92332.97
2022-12-14T13:41:59.594Z,92333.63
2022-12-14T13:45:08.473Z,92324.25
2022-12-14T13:47:45.963Z,92336.66
2022-12-14T13:50:39.827Z,92338.84
2022-12-14T13:53:31.570Z,92347.69
2022-12-14T13:56:00.571Z,92344.22
2022-12-14T13:58:44.570Z,92345.78
2022-12-14T14:01:35.729Z,92348.78
2022-12-14T14:04:11.550Z,92352.97
2022-12-14T14:06:45.641Z,92354.34
2022-12-14T14:09:31.365Z,92357.00
2022-12-14T14:12:25.888Z,92370.13
2022-12-14T14:15:00.458Z,92368.13
2022-12-14T14:17:46.666Z,92370.75
2022-12-14T14:20:31.746Z,92369.22
2022-12-14T14:23:14.264Z,92365.72
2022-12-14T14:25:46.711Z,92367.09
2022-12-14T14:28:29.667Z,92363.66
2022-12-14T14:30:58.631Z,92364.88
2022-12-14T14:33:47.684Z,92363.94
2022-12-14T14:36:33.271Z,92368.91
2022-12-14T14:39:02.410Z,92368.13
2022-12-14T14:41:36.577Z,92371.22
2022-12-14T14:44:18.527Z,92373.22
2022-12-14T14:46:49.784Z,92380.69
2022-12-14T14:49:26.179Z,92374.66
2022-12-14T14:51:52.959Z,92381.47
2022-12-14T14:57:33.381Z,92385.19
2022-12-14T15:00:06.428Z,92391.03
2022-12-14T15:02:42.168Z,92394.75
2022-12-14T15:08:34.506Z,92410.59
2022-12-14T15:11:05.357Z,92417.59
2022-12-14T15:13:57.705Z,92421.00
2022-12-14T15:16:41.828Z,92421.31
2022-12-14T15:19:27.889Z,92420.53
2022-12-14T15:21:58.386Z,92425.78
2022-12-14T15:24:26.124Z,92423.31
2022-12-14T15:26:53.777Z,92432.28
2022-12-14T15:29:28.275Z,92431.19
2022-12-14T15:31:59.967Z,92441.56
2022-12-14T15:34:27.659Z,92443.13
2022-12-14T15:36:55.258Z,92449.16
2022-12-14T15:40:00.433Z,92455.66
2022-12-14T15:42:27.774Z,92462.38
2022-12-14T15:44:56.269Z,92471.06
2022-12-14T15:47:30.773Z,92472.03
2022-12-14T15:50:15.945Z,92485.84
2022-12-14T15:52:44.446Z,92477.66
2022-12-14T15:55:30.953Z,92486.63
2022-12-14T15:58:01.061Z,92492.94
2022-12-14T16:00:27.876Z,92497.25
2022-12-14T16:02:54.990Z,92503.00
2022-12-14T16:05:22.558Z,92510.88
2022-12-14T16:07:58.553Z,92511.38
2022-12-14T16:10:33.019Z,92522.00
2022-12-14T16:13:23.198Z,92521.53
2022-12-14T16:15:50.702Z,92519.66
2022-12-14T16:18:18.559Z,92518.41
2022-12-14T16:20:54.705Z,92519.81
2022-12-14T16:23:24.072Z,92513.28
2022-12-14T16:26:20.765Z,92517.13
2022-12-14T16:28:48.037Z,92505.34
2022-12-14T16:31:20.477Z,92515.38
2022-12-14T16:34:05.375Z,92530.50
2022-12-14T16:36:34.635Z,92540.91
2022-12-14T16:39:05.749Z,92536.13
2022-12-14T16:41:41.569Z,92538.25
2022-12-14T16:44:19.808Z,92536.22
2022-12-14T16:47:23.996Z,92551.41
2022-12-14T16:49:55.177Z,92541.38
2022-12-14T16:52:34.317Z,92539.03
2022-12-14T16:55:13.248Z,92540.91
2022-12-14T16:57:49.192Z,92542.84
2022-12-14T17:00:37.765Z,92539.44
2022-12-14T17:03:20.217Z,92544.66
2022-12-14T17:06:08.710Z,92548.16
2022-12-14T17:08:35.372Z,92554.78
2022-12-14T17:11:02.336Z,92558.78
2022-12-14T17:13:29.665Z,92557.53
2022-12-14T17:16:00.213Z,92565.75
2022-12-14T17:18:32.026Z,92564.09
2022-12-14T17:20:59.777Z,92571.69
2022-12-14T17:23:26.717Z,92571.69
2022-12-14T17:25:53.556Z,92572.94
2022-12-14T17:28:23.105Z,92575.28
2022-12-14T17:30:51.191Z,92589.69
2022-12-14T17:33:18.062Z,92583.16
2022-12-14T17:35:44.743Z,92584.81
2022-12-14T17:38:14.868Z,92586.78
2022-12-14T17:40:42.394Z,92578.41
2022-12-14T17:43:13.444Z,92589.97
2022-12-14T17:45:40.518Z,92593.97
2022-12-14T17:48:12.994Z,92589.34
2022-12-14T17:50:41.081Z,92605.88
2022-12-14T17:53:13.516Z,92612.50
2022-12-14T17:55:40.244Z,92607.81
2022-12-14T17:58:07.169Z,92609.19
2022-12-14T18:00:52.506Z,92608.50
2022-12-14T18:03:19.497Z,92609.56
2022-12-14T18:05:51.515Z,92614.03
2022-12-14T18:08:19.863Z,92607.50
2022-12-14T18:10:48.737Z,92619.09
2022-12-14T18:13:15.609Z,92614.44
2022-12-14T18:15:49.766Z,92617.53
2022-12-14T18:18:18.907Z,92617.53
2022-12-14T18:20:49.766Z,92617.81
2022-12-14T18:23:18.330Z,92616.28
2022-12-14T18:25:48.537Z,92623.75
2022-12-14T18:28:15.855Z,92623.19
2022-12-14T18:30:49.659Z,92610.91
2022-12-14T18:33:20.396Z,92619.09
2022-12-14T18:35:49.067Z,92609.94
2022-12-14T18:38:16.231Z,92621.72
2022-12-14T18:40:51.044Z,92620.66
2022-12-14T18:43:23.759Z,92626.31
2022-12-14T18:45:53.097Z,92627.66
2022-12-14T18:48:20.964Z,92642.66
2022-12-14T18:50:49.658Z,92648.84
2022-12-14T18:53:21.592Z,92647.69
2022-12-14T18:55:49.459Z,92651.09
2022-12-14T18:58:22.160Z,92652.16
2022-12-14T19:00:54.622Z,92658.19
2022-12-14T19:03:22.302Z,92656.44
2022-12-14T19:05:49.252Z,92652.75
2022-12-14T19:08:15.925Z,92647.28
2022-12-14T19:10:45.861Z,92656.81
2022-12-14T19:13:20.340Z,92649.72
2022-12-14T19:15:51.846Z,92662.41
2022-12-14T19:18:18.927Z,92667.66
2022-12-14T19:20:45.589Z,92667.97
2022-12-14T19:23:17.603Z,92668.84
2022-12-14T19:25:44.926Z,92667.78
2022-12-14T19:28:30.706Z,92671.69
2022-12-14T19:30:59.027Z,92674.75
2022-12-14T19:33:26.855Z,92681.41
2022-12-14T19:35:53.813Z,92684.19
2022-12-14T19:38:20.593Z,92694.81
2022-12-14T19:40:59.830Z,92686.03
2022-12-14T19:43:26.957Z,92687.09
2022-12-14T19:45:53.654Z,92688.66
2022-12-14T19:48:20.529Z,92687.56
2022-12-14T19:50:49.391Z,92695.25
2022-12-14T19:53:21.621Z,92695.25
2022-12-14T19:55:52.598Z,92697.56
2022-12-14T19:58:22.034Z,92702.53
2022-12-14T20:00:50.121Z,92704.88
2022-12-14T20:03:17.629Z,92713.31
2022-12-14T20:05:58.769Z,92710.00
2022-12-14T20:08:27.869Z,92702.22
2022-12-14T20:10:55.241Z,92707.53
2022-12-14T20:13:23.418Z,92713.34
2022-12-14T20:15:59.817Z,92714.69
2022-12-14T20:18:27.200Z,92723.91
2022-12-14T20:21:01.781Z,92732.00
2022-12-14T20:23:29.047Z,92741.72
2022-12-14T20:26:01.139Z,92742.56
2022-12-14T20:28:28.084Z,92738.09
2022-12-14T20:30:54.822Z,92739.88
2022-12-14T20:33:26.439Z,92739.88
2022-12-14T20:35:56.671Z,92761.56
2022-12-14T20:38:23.346Z,92753.78
2022-12-14T20:40:50.258Z,92749.81
2022-12-14T20:43:16.981Z,92765.97
2022-12-14T20:45:46.703Z,92761.28
2022-12-14T20:48:13.722Z,92761.97
2022-12-14T20:50:42.630Z,92756.44
2022-12-14T20:53:09.342Z,92750.34
2022-12-14T20:55:36.225Z,92753.03
2022-12-14T20:58:02.908Z,92757.31
2022-12-14T21:00:29.741Z,92761.78
2022-12-14T21:02:56.736Z,92758.88
2022-12-14T21:05:23.623Z,92754.75
2022-12-14T21:07:50.361Z,92765.03
2022-12-14T21:10:17.133Z,92767.94
2022-12-14T21:12:44.594Z,92767.16
2022-12-14T21:15:11.316Z,92771.63
2022-12-14T21:17:39.160Z,92779.66
2022-12-14T21:20:06.347Z,92782.50
2022-12-14T21:22:35.289Z,92780.34
2022-12-14T21:25:04.186Z,92786.09
2022-12-14T21:27:32.911Z,92782.00
2022-12-14T21:30:03.397Z,92783.06
2022-12-14T21:32:30.231Z,92775.75
2022-12-14T21:34:57.054Z,92777.38
2022-12-14T21:37:24.173Z,92782.63
2022-12-14T21:39:54.317Z,92775.53
2022-12-14T21:42:24.046Z,92774.13
2022-12-14T21:44:52.862Z,92771.50
2022-12-14T21:47:26.894Z,92778.09
2022-12-14T21:49:54.890Z,92783.13
2022-12-14T21:52:30.497Z,92776.88
2022-12-14T21:54:59.257Z,92784.25
2022-12-14T21:57:49.655Z,92776.31
2022-12-14T22:00:18.220Z,92783.63
2022-12-14T22:02:45.008Z,92784.03
2022-12-14T22:05:11.849Z,92787.94
2022-12-14T22:07:38.629Z,92791.06
2022-12-14T22:10:05.855Z,92796.81
2022-12-14T22:12:33.113Z,92797.88
2022-12-14T22:15:00.378Z,92798.94
2022-12-14T22:17:27.115Z,92807.38
2022-12-14T22:19:55.190Z,92808.94
2022-12-14T22:22:22.532Z,92806.03
2022-12-14T22:24:51.287Z,92806.31
2022-12-14T22:27:19.203Z,92802.84
2022-12-14T22:29:45.875Z,92800.22
2022-12-14T22:32:13.528Z,92797.66
2022-12-14T22:34:40.299Z,92801.94
2022-12-14T22:37:06.972Z,92795.69
2022-12-14T22:39:33.641Z,92795.19
2022-12-14T22:42:00.310Z,92802.50
2022-12-14T22:44:27.085Z,92796.69
2022-12-14T22:46:53.767Z,92799.59
2022-12-14T22:49:20.441Z,92803.00
2022-12-14T22:51:47.610Z,92806.47
2022-12-14T22:54:22.436Z,92805.69
2022-12-14T22:57:00.346Z,92800.38
2022-12-14T22:59:36.457Z,92805.63
2022-12-14T23:02:03.912Z,92805.63
2022-12-14T23:04:31.064Z,92809.22
2022-12-14T23:06:57.733Z,92810.00
2022-12-14T23:09:43.079Z,92811.28
2022-12-14T23:12:28.447Z,92821.84
2022-12-14T23:15:13.772Z,92818.25
2022-12-14T23:17:59.171Z,92818.75
2022-12-14T23:20:44.431Z,92815.47
2022-12-14T23:23:30.170Z,92825.41
2022-12-14T23:26:20.441Z,92832.19
2022-12-14T23:29:05.730Z,92826.19
2022-12-14T23:31:51.298Z,92826.91
2022-12-14T23:34:36.686Z,92826.91
2022-12-14T23:37:21.942Z,92831.19
2022-12-14T23:40:07.457Z,92835.88
2022-12-14T23:42:52.766Z,92834.31
2022-12-14T23:45:38.648Z,92828.84
2022-12-14T23:48:23.889Z,92828.31
2022-12-14T23:51:09.252Z,92834.81
2022-12-14T23:53:54.624Z,92824.56
2022-12-14T23:56:40.243Z,92824.47
2022-12-14T23:59:31.531Z,92825.81
